This is the latest recevied weather packets stored in our database for station/object ON4CDJ-13. If no packets are shown the sender has not sent any weather packets the latest 10 day(s).
| Time | Temp. | Humidity | Pressure | Rain* | Wind** | Luminosity | Snow |
|---|---|---|---|---|---|---|---|
| 1777664144 | 17.22° C | 51% | 1021.4 hPa | 0 mm | - | 0 W/m² | - |
| 1777661210 | 22.78° C | 36% | 1021.2 hPa | 0 mm | - | 13 W/m² | - |
| 1777657518 | 25° C | 29% | 1021.1 hPa | 0 mm | - | 58 W/m² | - |
| 1777654548 | 25.56° C | 28% | 1021.4 hPa | 0 mm | - | 140 W/m² | - |
| 1777652765 | 25.56° C | 29% | 1021.6 hPa | 0 mm | - | 163 W/m² | - |
| 1777647955 | 25.56° C | 24% | 1022.1 hPa | 0 mm | - | 387 W/m² | - |
| 1777647335 | 25.56° C | 26% | 1022.1 hPa | 0 mm | - | 409 W/m² | - |
| 1777646166 | 25.56° C | 23% | 1022.3 hPa | 0 mm | - | 449 W/m² | - |
| 1777645551 | 25.56° C | 25% | 1022.4 hPa | 0 mm | - | 467 W/m² | - |
| 1777644940 | 25.56° C | 25% | 1022.3 hPa | 0 mm | - | 486 W/m² | - |
| 1777636545 | 22.78° C | 28% | 1023.5 hPa | 0 mm | - | 648 W/m² | - |
| 1777635375 | 22.22° C | 28% | 1023.6 hPa | 0 mm | - | 654 W/m² | - |
| 1777626960 | 18.89° C | 32% | 1024.7 hPa | 0 mm | - | 535 W/m² | - |
| 1777623959 | 16.11° C | 36% | 1024.8 hPa | 0 mm | - | 438 W/m² | - |
| 1777622766 | 16.11° C | 37% | 1025 hPa | 0 mm | - | 373 W/m² | - |
| 1777622139 | 15° C | 37% | 1025 hPa | 0 mm | - | 369 W/m² | - |
| 1777621542 | 15° C | 37% | 1024.9 hPa | 0 mm | - | 338 W/m² | - |
| 1777620342 | 14.44° C | 39% | 1024.9 hPa | 0 mm | - | 241 W/m² | - |
| 1777619726 | 14.44° C | 39% | 1024.9 hPa | 0 mm | - | 223 W/m² | - |
| 1777614973 | 11.11° C | 45% | 1025 hPa | 0 mm | - | 99 W/m² | - |
| 1777613120 | 10° C | 47% | 1024.8 hPa | 0 mm | - | 51 W/m² | - |
| 1777608968 | 8.89° C | 49% | 1024.6 hPa | 0 mm | - | 2 W/m² | - |
| 1777605383 | 8.89° C | 47% | 1024.9 hPa | 0 mm | - | 0 W/m² | - |
| 1777603529 | 10° C | 44% | 1024.8 hPa | 0 mm | - | 0 W/m² | - |
| 1777601750 | 10.56° C | 41% | 1024.9 hPa | 0 mm | - | 0 W/m² | - |
* Rain latest hour (hover to see other rain measurements)
** Current wind speed in m/s (hover to see current wind gust speed)